sensor_id;sensor_type;location;lat;lon;timestamp;P1;durP1;ratioP1;P2;durP2;ratioP2
25627;SDS011;40915;50.826;4.356;2023-03-20T00:00:38;13.70;;;7.47;;
25627;SDS011;40915;50.826;4.356;2023-03-20T00:03:08;14.87;;;8.10;;
25627;SDS011;40915;50.826;4.356;2023-03-20T00:05:36;15.97;;;8.10;;
25627;SDS011;40915;50.826;4.356;2023-03-20T00:08:02;13.67;;;8.20;;
25627;SDS011;40915;50.826;4.356;2023-03-20T00:10:34;15.63;;;7.67;;
25627;SDS011;40915;50.826;4.356;2023-03-20T00:13:01;14.33;;;8.00;;
25627;SDS011;40915;50.826;4.356;2023-03-20T00:15:36;15.83;;;8.10;;
25627;SDS011;40915;50.826;4.356;2023-03-20T00:18:03;12.60;;;7.50;;
25627;SDS011;40915;50.826;4.356;2023-03-20T00:20:34;12.80;;;7.93;;
25627;SDS011;40915;50.826;4.356;2023-03-20T00:23:00;13.60;;;7.83;;
25627;SDS011;40915;50.826;4.356;2023-03-20T00:25:27;15.60;;;7.97;;
25627;SDS011;40915;50.826;4.356;2023-03-20T00:27:53;12.40;;;7.43;;
25627;SDS011;40915;50.826;4.356;2023-03-20T00:30:25;15.33;;;7.60;;
25627;SDS011;40915;50.826;4.356;2023-03-20T00:32:53;15.87;;;7.33;;
25627;SDS011;40915;50.826;4.356;2023-03-20T00:37:45;14.00;;;7.37;;
25627;SDS011;40915;50.826;4.356;2023-03-20T00:40:11;12.60;;;7.37;;
25627;SDS011;40915;50.826;4.356;2023-03-20T00:42:37;13.50;;;7.43;;
25627;SDS011;40915;50.826;4.356;2023-03-20T00:45:04;13.13;;;7.80;;
25627;SDS011;40915;50.826;4.356;2023-03-20T00:47:30;11.83;;;7.30;;
25627;SDS011;40915;50.826;4.356;2023-03-20T00:50:00;11.97;;;7.17;;
25627;SDS011;40915;50.826;4.356;2023-03-20T00:52:27;12.50;;;6.80;;
25627;SDS011;40915;50.826;4.356;2023-03-20T00:54:52;13.63;;;6.57;;
25627;SDS011;40915;50.826;4.356;2023-03-20T00:57:19;11.73;;;7.07;;
25627;SDS011;40915;50.826;4.356;2023-03-20T01:02:18;12.97;;;6.80;;
25627;SDS011;40915;50.826;4.356;2023-03-20T01:04:46;15.63;;;7.50;;
25627;SDS011;40915;50.826;4.356;2023-03-20T01:07:13;12.63;;;7.00;;
25627;SDS011;40915;50.826;4.356;2023-03-20T01:09:40;11.10;;;7.03;;
25627;SDS011;40915;50.826;4.356;2023-03-20T01:12:06;14.93;;;7.93;;
25627;SDS011;40915;50.826;4.356;2023-03-20T01:14:33;13.70;;;7.67;;
25627;SDS011;40915;50.826;4.356;2023-03-20T01:16:59;10.20;;;7.07;;
25627;SDS011;40915;50.826;4.356;2023-03-20T01:19:25;18.27;;;8.43;;
25627;SDS011;40915;50.826;4.356;2023-03-20T01:21:51;10.77;;;7.53;;
25627;SDS011;40915;50.826;4.356;2023-03-20T01:24:17;15.57;;;7.83;;
25627;SDS011;40915;50.826;4.356;2023-03-20T01:26:43;14.77;;;7.60;;
25627;SDS011;40915;50.826;4.356;2023-03-20T01:29:20;15.40;;;8.40;;
25627;SDS011;40915;50.826;4.356;2023-03-20T01:31:46;14.43;;;7.80;;
25627;SDS011;40915;50.826;4.356;2023-03-20T01:34:12;14.97;;;7.97;;
25627;SDS011;40915;50.826;4.356;2023-03-20T01:36:40;13.17;;;8.03;;
25627;SDS011;40915;50.826;4.356;2023-03-20T01:39:08;17.67;;;9.30;;
25627;SDS011;40915;50.826;4.356;2023-03-20T01:41:34;12.63;;;8.33;;
25627;SDS011;40915;50.826;4.356;2023-03-20T01:44:05;15.47;;;8.40;;
25627;SDS011;40915;50.826;4.356;2023-03-20T01:46:37;16.10;;;8.80;;
25627;SDS011;40915;50.826;4.356;2023-03-20T01:49:08;14.47;;;8.30;;
25627;SDS011;40915;50.826;4.356;2023-03-20T01:51:53;17.03;;;8.70;;
25627;SDS011;40915;50.826;4.356;2023-03-20T01:54:29;14.73;;;9.17;;
25627;SDS011;40915;50.826;4.356;2023-03-20T01:59:27;16.30;;;9.93;;
25627;SDS011;40915;50.826;4.356;2023-03-20T02:01:54;19.37;;;9.83;;
25627;SDS011;40915;50.826;4.356;2023-03-20T02:04:23;17.50;;;8.77;;
25627;SDS011;40915;50.826;4.356;2023-03-20T02:06:50;17.00;;;8.97;;
25627;SDS011;40915;50.826;4.356;2023-03-20T02:09:16;15.03;;;8.50;;
25627;SDS011;40915;50.826;4.356;2023-03-20T02:11:43;20.87;;;9.67;;
25627;SDS011;40915;50.826;4.356;2023-03-20T02:14:09;18.47;;;9.67;;
25627;SDS011;40915;50.826;4.356;2023-03-20T02:16:36;14.67;;;9.47;;
25627;SDS011;40915;50.826;4.356;2023-03-20T02:19:02;22.27;;;10.77;;
25627;SDS011;40915;50.826;4.356;2023-03-20T02:29:34;19.17;;;9.67;;
25627;SDS011;40915;50.826;4.356;2023-03-20T02:48:19;18.50;;;10.50;;
25627;SDS011;40915;50.826;4.356;2023-03-20T02:58:00;22.53;;;11.40;;
25627;SDS011;40915;50.826;4.356;2023-03-20T03:00:29;23.40;;;10.63;;
25627;SDS011;40915;50.826;4.356;2023-03-20T03:05:28;20.43;;;11.07;;
25627;SDS011;40915;50.826;4.356;2023-03-20T03:07:57;20.20;;;10.50;;
25627;SDS011;40915;50.826;4.356;2023-03-20T03:10:26;22.43;;;10.97;;
25627;SDS011;40915;50.826;4.356;2023-03-20T03:12:55;23.70;;;11.53;;
25627;SDS011;40915;50.826;4.356;2023-03-20T03:15:24;25.83;;;11.60;;
25627;SDS011;40915;50.826;4.356;2023-03-20T03:17:51;19.00;;;10.97;;
25627;SDS011;40915;50.826;4.356;2023-03-20T03:20:21;21.90;;;10.60;;
25627;SDS011;40915;50.826;4.356;2023-03-20T03:22:48;24.30;;;11.80;;
25627;SDS011;40915;50.826;4.356;2023-03-20T03:25:14;19.73;;;10.20;;
25627;SDS011;40915;50.826;4.356;2023-03-20T03:27:41;20.50;;;10.80;;
25627;SDS011;40915;50.826;4.356;2023-03-20T03:30:15;24.33;;;12.10;;
25627;SDS011;40915;50.826;4.356;2023-03-20T03:32:47;21.60;;;11.57;;
25627;SDS011;40915;50.826;4.356;2023-03-20T03:35:15;19.20;;;10.10;;
25627;SDS011;40915;50.826;4.356;2023-03-20T03:37:48;24.73;;;11.03;;
25627;SDS011;40915;50.826;4.356;2023-03-20T03:40:18;21.70;;;10.63;;
25627;SDS011;40915;50.826;4.356;2023-03-20T03:42:49;21.20;;;10.70;;
25627;SDS011;40915;50.826;4.356;2023-03-20T03:45:23;18.57;;;9.20;;
25627;SDS011;40915;50.826;4.356;2023-03-20T03:47:52;20.03;;;9.57;;
25627;SDS011;40915;50.826;4.356;2023-03-20T03:52:44;21.50;;;9.57;;
25627;SDS011;40915;50.826;4.356;2023-03-20T03:55:16;16.13;;;9.00;;
25627;SDS011;40915;50.826;4.356;2023-03-20T04:00:42;17.77;;;9.20;;
25627;SDS011;40915;50.826;4.356;2023-03-20T04:03:14;20.60;;;9.50;;
25627;SDS011;40915;50.826;4.356;2023-03-20T04:05:41;20.70;;;9.03;;
25627;SDS011;40915;50.826;4.356;2023-03-20T04:08:08;16.60;;;8.60;;
25627;SDS011;40915;50.826;4.356;2023-03-20T04:10:34;19.40;;;8.93;;
25627;SDS011;40915;50.826;4.356;2023-03-20T04:13:00;21.33;;;9.57;;
25627;SDS011;40915;50.826;4.356;2023-03-20T04:15:26;18.93;;;8.23;;
25627;SDS011;40915;50.826;4.356;2023-03-20T04:17:53;21.53;;;8.70;;
25627;SDS011;40915;50.826;4.356;2023-03-20T04:20:19;22.13;;;8.97;;
25627;SDS011;40915;50.826;4.356;2023-03-20T04:22:45;17.53;;;8.90;;
25627;SDS011;40915;50.826;4.356;2023-03-20T04:25:16;22.10;;;8.23;;
25627;SDS011;40915;50.826;4.356;2023-03-20T04:27:42;15.00;;;8.00;;
25627;SDS011;40915;50.826;4.356;2023-03-20T04:30:08;22.00;;;8.23;;
25627;SDS011;40915;50.826;4.356;2023-03-20T04:32:34;23.00;;;8.47;;
25627;SDS011;40915;50.826;4.356;2023-03-20T04:35:00;18.23;;;8.03;;
25627;SDS011;40915;50.826;4.356;2023-03-20T04:37:26;21.87;;;8.10;;
25627;SDS011;40915;50.826;4.356;2023-03-20T04:39:52;20.90;;;8.27;;
25627;SDS011;40915;50.826;4.356;2023-03-20T04:42:18;17.37;;;7.87;;
25627;SDS011;40915;50.826;4.356;2023-03-20T04:44:48;16.93;;;6.93;;
25627;SDS011;40915;50.826;4.356;2023-03-20T04:47:14;16.20;;;7.67;;
25627;SDS011;40915;50.826;4.356;2023-03-20T04:49:40;17.57;;;7.20;;
25627;SDS011;40915;50.826;4.356;2023-03-20T04:52:06;19.80;;;7.43;;
25627;SDS011;40915;50.826;4.356;2023-03-20T04:54:33;14.37;;;7.17;;
25627;SDS011;40915;50.826;4.356;2023-03-20T04:56:59;14.23;;;7.50;;
25627;SDS011;40915;50.826;4.356;2023-03-20T04:59:25;16.30;;;7.07;;
25627;SDS011;40915;50.826;4.356;2023-03-20T05:01:51;19.80;;;6.93;;
25627;SDS011;40915;50.826;4.356;2023-03-20T05:04:17;17.27;;;6.80;;
25627;SDS011;40915;50.826;4.356;2023-03-20T05:06:43;19.83;;;7.37;;
25627;SDS011;40915;50.826;4.356;2023-03-20T05:09:13;21.93;;;6.97;;
25627;SDS011;40915;50.826;4.356;2023-03-20T05:11:39;16.73;;;7.30;;
25627;SDS011;40915;50.826;4.356;2023-03-20T05:14:05;12.57;;;6.07;;
25627;SDS011;40915;50.826;4.356;2023-03-20T05:16:31;20.63;;;6.90;;
25627;SDS011;40915;50.826;4.356;2023-03-20T05:18:57;16.03;;;6.70;;
25627;SDS011;40915;50.826;4.356;2023-03-20T05:21:23;20.23;;;6.47;;
25627;SDS011;40915;50.826;4.356;2023-03-20T05:23:49;20.70;;;6.83;;
25627;SDS011;40915;50.826;4.356;2023-03-20T05:26:15;12.50;;;6.10;;
25627;SDS011;40915;50.826;4.356;2023-03-20T05:28:41;16.30;;;5.70;;
25627;SDS011;40915;50.826;4.356;2023-03-20T05:31:07;14.77;;;5.83;;
25627;SDS011;40915;50.826;4.356;2023-03-20T05:33:33;35.40;;;7.97;;
25627;SDS011;40915;50.826;4.356;2023-03-20T05:35:59;15.13;;;6.03;;
25627;SDS011;40915;50.826;4.356;2023-03-20T05:38:25;15.80;;;6.10;;
25627;SDS011;40915;50.826;4.356;2023-03-20T05:40:58;19.00;;;5.77;;
25627;SDS011;40915;50.826;4.356;2023-03-20T05:43:25;18.27;;;5.70;;
25627;SDS011;40915;50.826;4.356;2023-03-20T05:45:52;17.50;;;5.67;;
25627;SDS011;40915;50.826;4.356;2023-03-20T05:48:18;16.17;;;5.47;;
25627;SDS011;40915;50.826;4.356;2023-03-20T05:50:45;12.33;;;5.30;;
25627;SDS011;40915;50.826;4.356;2023-03-20T05:53:11;14.33;;;5.40;;
25627;SDS011;40915;50.826;4.356;2023-03-20T05:55:40;17.03;;;6.03;;
25627;SDS011;40915;50.826;4.356;2023-03-20T05:58:08;15.90;;;6.10;;
25627;SDS011;40915;50.826;4.356;2023-03-20T06:00:34;16.37;;;5.87;;
25627;SDS011;40915;50.826;4.356;2023-03-20T06:03:00;15.83;;;5.80;;
25627;SDS011;40915;50.826;4.356;2023-03-20T06:05:26;23.13;;;6.80;;
25627;SDS011;40915;50.826;4.356;2023-03-20T06:07:52;12.90;;;5.90;;
25627;SDS011;40915;50.826;4.356;2023-03-20T06:10:18;17.43;;;5.40;;
25627;SDS011;40915;50.826;4.356;2023-03-20T06:12:45;19.10;;;5.30;;
25627;SDS011;40915;50.826;4.356;2023-03-20T06:15:11;15.20;;;5.57;;
25627;SDS011;40915;50.826;4.356;2023-03-20T06:17:37;12.87;;;4.83;;
25627;SDS011;40915;50.826;4.356;2023-03-20T06:20:03;16.37;;;5.03;;
25627;SDS011;40915;50.826;4.356;2023-03-20T06:22:29;18.10;;;4.67;;
25627;SDS011;40915;50.826;4.356;2023-03-20T06:24:56;11.97;;;5.10;;
25627;SDS011;40915;50.826;4.356;2023-03-20T06:27:22;13.33;;;4.63;;
25627;SDS011;40915;50.826;4.356;2023-03-20T06:29:48;13.73;;;4.43;;
25627;SDS011;40915;50.826;4.356;2023-03-20T06:32:14;15.20;;;4.73;;
25627;SDS011;40915;50.826;4.356;2023-03-20T06:34:41;17.23;;;4.40;;
25627;SDS011;40915;50.826;4.356;2023-03-20T06:37:07;11.73;;;4.10;;
25627;SDS011;40915;50.826;4.356;2023-03-20T06:39:33;15.17;;;4.20;;
25627;SDS011;40915;50.826;4.356;2023-03-20T06:42:00;15.17;;;4.70;;
25627;SDS011;40915;50.826;4.356;2023-03-20T06:44:26;11.73;;;4.53;;
25627;SDS011;40915;50.826;4.356;2023-03-20T06:46:52;13.53;;;4.47;;
25627;SDS011;40915;50.826;4.356;2023-03-20T06:49:18;14.53;;;4.80;;
25627;SDS011;40915;50.826;4.356;2023-03-20T06:51:44;18.30;;;4.67;;
25627;SDS011;40915;50.826;4.356;2023-03-20T06:54:11;15.60;;;4.47;;
25627;SDS011;40915;50.826;4.356;2023-03-20T06:56:37;14.10;;;4.60;;
25627;SDS011;40915;50.826;4.356;2023-03-20T06:59:03;14.97;;;4.47;;
25627;SDS011;40915;50.826;4.356;2023-03-20T07:01:31;13.83;;;4.10;;
25627;SDS011;40915;50.826;4.356;2023-03-20T07:03:57;13.67;;;4.03;;
25627;SDS011;40915;50.826;4.356;2023-03-20T07:06:23;12.03;;;4.27;;
25627;SDS011;40915;50.826;4.356;2023-03-20T07:08:49;13.73;;;4.20;;
25627;SDS011;40915;50.826;4.356;2023-03-20T07:11:16;14.97;;;5.10;;
25627;SDS011;40915;50.826;4.356;2023-03-20T07:13:43;14.80;;;4.40;;
25627;SDS011;40915;50.826;4.356;2023-03-20T07:16:10;15.83;;;4.67;;
25627;SDS011;40915;50.826;4.356;2023-03-20T07:18:36;15.43;;;4.57;;
25627;SDS011;40915;50.826;4.356;2023-03-20T07:21:04;16.53;;;4.47;;
25627;SDS011;40915;50.826;4.356;2023-03-20T07:23:33;15.67;;;4.43;;
25627;SDS011;40915;50.826;4.356;2023-03-20T07:26:01;12.93;;;4.53;;
25627;SDS011;40915;50.826;4.356;2023-03-20T07:28:29;12.33;;;4.23;;
25627;SDS011;40915;50.826;4.356;2023-03-20T07:30:56;15.60;;;4.20;;
25627;SDS011;40915;50.826;4.356;2023-03-20T07:33:23;15.20;;;4.20;;
25627;SDS011;40915;50.826;4.356;2023-03-20T07:35:51;12.63;;;4.17;;
25627;SDS011;40915;50.826;4.356;2023-03-20T07:38:19;14.47;;;4.00;;
25627;SDS011;40915;50.826;4.356;2023-03-20T07:40:46;14.97;;;4.17;;
25627;SDS011;40915;50.826;4.356;2023-03-20T07:43:13;8.53;;;3.50;;
25627;SDS011;40915;50.826;4.356;2023-03-20T07:45:41;12.90;;;4.63;;
25627;SDS011;40915;50.826;4.356;2023-03-20T07:48:08;15.23;;;4.47;;
25627;SDS011;40915;50.826;4.356;2023-03-20T07:50:35;14.70;;;4.00;;
25627;SDS011;40915;50.826;4.356;2023-03-20T07:53:03;15.13;;;4.17;;
25627;SDS011;40915;50.826;4.356;2023-03-20T07:55:30;9.90;;;3.50;;
25627;SDS011;40915;50.826;4.356;2023-03-20T07:57:57;13.27;;;3.83;;
25627;SDS011;40915;50.826;4.356;2023-03-20T08:00:24;15.13;;;4.57;;
25627;SDS011;40915;50.826;4.356;2023-03-20T08:02:51;16.27;;;4.47;;
25627;SDS011;40915;50.826;4.356;2023-03-20T08:05:20;12.23;;;4.33;;
25627;SDS011;40915;50.826;4.356;2023-03-20T08:07:47;12.43;;;3.70;;
25627;SDS011;40915;50.826;4.356;2023-03-20T08:10:15;13.30;;;3.90;;
25627;SDS011;40915;50.826;4.356;2023-03-20T08:12:42;11.83;;;5.33;;
25627;SDS011;40915;50.826;4.356;2023-03-20T08:15:09;13.07;;;4.00;;
25627;SDS011;40915;50.826;4.356;2023-03-20T08:17:36;9.37;;;3.70;;
25627;SDS011;40915;50.826;4.356;2023-03-20T08:20:04;9.73;;;3.10;;
25627;SDS011;40915;50.826;4.356;2023-03-20T08:22:31;15.40;;;3.93;;
25627;SDS011;40915;50.826;4.356;2023-03-20T08:24:58;11.23;;;4.20;;
25627;SDS011;40915;50.826;4.356;2023-03-20T08:27:25;15.60;;;3.60;;
25627;SDS011;40915;50.826;4.356;2023-03-20T08:29:52;15.20;;;3.73;;
25627;SDS011;40915;50.826;4.356;2023-03-20T08:32:19;13.40;;;3.57;;
25627;SDS011;40915;50.826;4.356;2023-03-20T08:34:46;11.10;;;3.60;;
25627;SDS011;40915;50.826;4.356;2023-03-20T08:37:13;14.33;;;4.03;;
25627;SDS011;40915;50.826;4.356;2023-03-20T08:39:41;16.80;;;4.20;;
25627;SDS011;40915;50.826;4.356;2023-03-20T08:42:08;12.57;;;4.30;;
25627;SDS011;40915;50.826;4.356;2023-03-20T08:44:35;14.73;;;4.50;;
25627;SDS011;40915;50.826;4.356;2023-03-20T08:47:02;10.13;;;4.10;;
25627;SDS011;40915;50.826;4.356;2023-03-20T08:49:31;13.60;;;4.45;;
25627;SDS011;40915;50.826;4.356;2023-03-20T08:51:59;11.80;;;4.10;;
25627;SDS011;40915;50.826;4.356;2023-03-20T08:54:26;14.17;;;4.20;;
25627;SDS011;40915;50.826;4.356;2023-03-20T08:56:53;14.37;;;4.80;;
25627;SDS011;40915;50.826;4.356;2023-03-20T08:59:20;14.87;;;5.07;;
25627;SDS011;40915;50.826;4.356;2023-03-20T09:01:47;10.17;;;3.47;;
25627;SDS011;40915;50.826;4.356;2023-03-20T09:04:14;13.33;;;4.43;;
25627;SDS011;40915;50.826;4.356;2023-03-20T09:06:41;11.87;;;4.83;;
25627;SDS011;40915;50.826;4.356;2023-03-20T09:09:08;20.47;;;5.70;;
25627;SDS011;40915;50.826;4.356;2023-03-20T09:11:35;13.00;;;4.57;;
25627;SDS011;40915;50.826;4.356;2023-03-20T09:14:02;17.30;;;4.60;;
25627;SDS011;40915;50.826;4.356;2023-03-20T09:16:28;16.63;;;5.13;;
25627;SDS011;40915;50.826;4.356;2023-03-20T09:18:55;18.27;;;5.17;;
25627;SDS011;40915;50.826;4.356;2023-03-20T09:21:22;13.77;;;5.90;;
25627;SDS011;40915;50.826;4.356;2023-03-20T09:23:49;17.17;;;5.47;;
25627;SDS011;40915;50.826;4.356;2023-03-20T09:26:16;14.77;;;4.77;;
25627;SDS011;40915;50.826;4.356;2023-03-20T09:28:43;15.07;;;4.73;;
25627;SDS011;40915;50.826;4.356;2023-03-20T09:31:10;14.43;;;4.10;;
25627;SDS011;40915;50.826;4.356;2023-03-20T09:33:37;12.50;;;4.70;;
25627;SDS011;40915;50.826;4.356;2023-03-20T09:36:04;11.73;;;4.63;;
25627;SDS011;40915;50.826;4.356;2023-03-20T09:38:35;13.37;;;5.20;;
25627;SDS011;40915;50.826;4.356;2023-03-20T09:41:02;16.17;;;4.82;;
25627;SDS011;40915;50.826;4.356;2023-03-20T09:49:01;13.63;;;4.22;;
25627;SDS011;40915;50.826;4.356;2023-03-20T09:51:52;12.63;;;3.83;;
25627;SDS011;40915;50.826;4.356;2023-03-20T09:54:32;10.65;;;3.72;;
25627;SDS011;40915;50.826;4.356;2023-03-20T09:57:01;11.07;;;4.70;;
25627;SDS011;40915;50.826;4.356;2023-03-20T09:59:28;15.63;;;4.43;;
25627;SDS011;40915;50.826;4.356;2023-03-20T10:02:05;15.57;;;4.15;;
25627;SDS011;40915;50.826;4.356;2023-03-20T10:04:34;13.57;;;4.00;;
25627;SDS011;40915;50.826;4.356;2023-03-20T10:07:02;14.93;;;3.70;;
25627;SDS011;40915;50.826;4.356;2023-03-20T10:09:29;11.63;;;3.67;;
25627;SDS011;40915;50.826;4.356;2023-03-20T10:12:01;25.42;;;5.93;;
25627;SDS011;40915;50.826;4.356;2023-03-20T10:19:43;11.93;;;3.50;;
25627;SDS011;40915;50.826;4.356;2023-03-20T10:24:41;13.57;;;4.15;;
25627;SDS011;40915;50.826;4.356;2023-03-20T10:27:13;13.52;;;3.60;;
25627;SDS011;40915;50.826;4.356;2023-03-20T10:32:34;11.23;;;3.40;;
25627;SDS011;40915;50.826;4.356;2023-03-20T10:35:09;12.73;;;3.50;;
25627;SDS011;40915;50.826;4.356;2023-03-20T10:40:18;14.60;;;3.50;;
25627;SDS011;40915;50.826;4.356;2023-03-20T10:42:46;11.52;;;3.65;;
25627;SDS011;40915;50.826;4.356;2023-03-20T10:48:00;9.63;;;3.13;;
25627;SDS011;40915;50.826;4.356;2023-03-20T10:50:34;15.80;;;3.65;;
25627;SDS011;40915;50.826;4.356;2023-03-20T10:53:03;12.32;;;3.22;;
25627;SDS011;40915;50.826;4.356;2023-03-20T10:55:33;10.45;;;3.25;;
25627;SDS011;40915;50.826;4.356;2023-03-20T10:58:24;16.08;;;6.50;;
25627;SDS011;40915;50.826;4.356;2023-03-20T11:00:49;11.00;;;3.40;;
25627;SDS011;40915;50.826;4.356;2023-03-20T11:03:21;12.30;;;3.00;;
25627;SDS011;40915;50.826;4.356;2023-03-20T11:05:56;9.55;;;2.83;;
25627;SDS011;40915;50.826;4.356;2023-03-20T11:08:25;8.02;;;2.92;;
25627;SDS011;40915;50.826;4.356;2023-03-20T11:10:57;8.90;;;2.85;;
25627;SDS011;40915;50.826;4.356;2023-03-20T11:13:26;15.52;;;3.78;;
25627;SDS011;40915;50.826;4.356;2023-03-20T11:15:55;8.52;;;2.60;;
25627;SDS011;40915;50.826;4.356;2023-03-20T11:18:25;11.07;;;2.80;;
25627;SDS011;40915;50.826;4.356;2023-03-20T11:20:55;13.63;;;2.80;;
25627;SDS011;40915;50.826;4.356;2023-03-20T11:23:24;14.70;;;3.90;;
25627;SDS011;40915;50.826;4.356;2023-03-20T11:25:55;13.35;;;3.67;;
25627;SDS011;40915;50.826;4.356;2023-03-20T11:28:30;15.40;;;3.38;;
25627;SDS011;40915;50.826;4.356;2023-03-20T11:30:58;10.35;;;2.60;;
25627;SDS011;40915;50.826;4.356;2023-03-20T11:33:26;12.23;;;3.77;;
25627;SDS011;40915;50.826;4.356;2023-03-20T11:35:54;17.33;;;3.70;;
25627;SDS011;40915;50.826;4.356;2023-03-20T11:38:21;14.70;;;3.22;;
25627;SDS011;40915;50.826;4.356;2023-03-20T11:40:47;12.88;;;3.78;;
25627;SDS011;40915;50.826;4.356;2023-03-20T11:43:20;9.52;;;2.53;;
25627;SDS011;40915;50.826;4.356;2023-03-20T11:45:53;12.02;;;3.35;;
25627;SDS011;40915;50.826;4.356;2023-03-20T11:48:22;11.40;;;2.85;;
25627;SDS011;40915;50.826;4.356;2023-03-20T11:53:29;15.85;;;3.13;;
25627;SDS011;40915;50.826;4.356;2023-03-20T11:56:02;9.93;;;3.08;;
25627;SDS011;40915;50.826;4.356;2023-03-20T11:58:35;17.08;;;3.58;;
25627;SDS011;40915;50.826;4.356;2023-03-20T12:01:22;16.75;;;4.13;;
25627;SDS011;40915;50.826;4.356;2023-03-20T12:03:50;14.52;;;3.33;;
25627;SDS011;40915;50.826;4.356;2023-03-20T12:06:26;17.02;;;4.18;;
25627;SDS011;40915;50.826;4.356;2023-03-20T12:09:02;8.93;;;3.03;;
25627;SDS011;40915;50.826;4.356;2023-03-20T12:14:10;10.80;;;3.38;;
25627;SDS011;40915;50.826;4.356;2023-03-20T12:16:43;11.65;;;3.20;;
25627;SDS011;40915;50.826;4.356;2023-03-20T12:19:19;12.95;;;3.20;;
25627;SDS011;40915;50.826;4.356;2023-03-20T12:21:54;12.80;;;3.28;;
25627;SDS011;40915;50.826;4.356;2023-03-20T12:24:40;14.35;;;3.75;;
25627;SDS011;40915;50.826;4.356;2023-03-20T12:27:19;16.60;;;3.85;;
25627;SDS011;40915;50.826;4.356;2023-03-20T12:29:50;11.40;;;3.83;;
25627;SDS011;40915;50.826;4.356;2023-03-20T12:34:51;11.48;;;4.22;;
25627;SDS011;40915;50.826;4.356;2023-03-20T12:37:17;22.10;;;4.28;;
25627;SDS011;40915;50.826;4.356;2023-03-20T12:40:02;11.13;;;3.80;;
25627;SDS011;40915;50.826;4.356;2023-03-20T12:45:07;14.40;;;4.03;;
25627;SDS011;40915;50.826;4.356;2023-03-20T13:05:46;12.43;;;3.97;;
25627;SDS011;40915;50.826;4.356;2023-03-20T13:11:16;12.82;;;4.30;;
25627;SDS011;40915;50.826;4.356;2023-03-20T13:13:46;20.30;;;4.18;;
25627;SDS011;40915;50.826;4.356;2023-03-20T13:16:25;10.85;;;4.00;;
25627;SDS011;40915;50.826;4.356;2023-03-20T13:18:56;11.88;;;4.20;;
25627;SDS011;40915;50.826;4.356;2023-03-20T13:21:26;20.25;;;4.70;;
25627;SDS011;40915;50.826;4.356;2023-03-20T13:34:26;23.73;;;5.10;;
25627;SDS011;40915;50.826;4.356;2023-03-20T13:37:39;17.38;;;4.40;;
25627;SDS011;40915;50.826;4.356;2023-03-20T13:39:54;14.43;;;4.68;;
25627;SDS011;40915;50.826;4.356;2023-03-20T13:42:24;13.13;;;4.53;;
25627;SDS011;40915;50.826;4.356;2023-03-20T13:44:55;16.60;;;5.57;;
25627;SDS011;40915;50.826;4.356;2023-03-20T13:47:24;14.60;;;4.72;;
25627;SDS011;40915;50.826;4.356;2023-03-20T13:50:22;20.95;;;6.20;;
25627;SDS011;40915;50.826;4.356;2023-03-20T13:52:58;13.82;;;4.47;;
25627;SDS011;40915;50.826;4.356;2023-03-20T14:00:48;16.80;;;5.30;;
25627;SDS011;40915;50.826;4.356;2023-03-20T14:05:43;21.20;;;5.00;;
25627;SDS011;40915;50.826;4.356;2023-03-20T14:10:45;17.40;;;5.32;;
25627;SDS011;40915;50.826;4.356;2023-03-20T14:13:12;32.80;;;5.95;;
25627;SDS011;40915;50.826;4.356;2023-03-20T14:15:39;26.05;;;6.25;;
25627;SDS011;40915;50.826;4.356;2023-03-20T14:18:14;15.50;;;4.90;;
25627;SDS011;40915;50.826;4.356;2023-03-20T14:20:41;22.75;;;5.80;;
25627;SDS011;40915;50.826;4.356;2023-03-20T14:23:17;16.13;;;5.22;;
25627;SDS011;40915;50.826;4.356;2023-03-20T14:25:44;16.50;;;5.20;;
25627;SDS011;40915;50.826;4.356;2023-03-20T14:35:36;20.20;;;5.93;;
25627;SDS011;40915;50.826;4.356;2023-03-20T14:40:51;19.50;;;6.05;;
25627;SDS011;40915;50.826;4.356;2023-03-20T14:46:00;17.23;;;4.80;;
25627;SDS011;40915;50.826;4.356;2023-03-20T14:48:38;16.27;;;5.15;;
25627;SDS011;40915;50.826;4.356;2023-03-20T14:51:19;15.25;;;4.95;;
25627;SDS011;40915;50.826;4.356;2023-03-20T14:53:56;14.75;;;5.05;;
25627;SDS011;40915;50.826;4.356;2023-03-20T14:56:27;13.75;;;4.88;;
25627;SDS011;40915;50.826;4.356;2023-03-20T14:58:55;14.73;;;5.00;;
25627;SDS011;40915;50.826;4.356;2023-03-20T15:04:48;16.33;;;5.68;;
25627;SDS011;40915;50.826;4.356;2023-03-20T15:07:43;14.88;;;4.72;;
25627;SDS011;40915;50.826;4.356;2023-03-20T15:09:39;15.30;;;4.60;;
25627;SDS011;40915;50.826;4.356;2023-03-20T15:12:08;15.32;;;5.63;;
